KLNK

Lincoln Airport

Lincoln, Nebraska, USA
METAR KLNK 151912Z 04008KT 2SM -SN FEW015 BKN028 OVC034 M11/M14 A3013 RMK AO2 P0000 T11061144
Observed Flight Rules
Feb-15 @ 19:12 UTC (16 minutes ago) Instrument Flight Rules
Wind Visibility Clouds Conditions
40° at 8 knots 2 miles
  • Few at 1,500' AGL
  • Broken at 2,800' AGL
  • Overcast at 3,400' AGL
  • Light Snow
Temperatures Readings Precipitation
Current -11°C / 12°F
Dewpoint -14°C / 7°F
Humidity 79%
Altimeter 30.13" Hg
Pressure 1020.32 hPa
Elevation 364
Current Rain 0.01
METAR KLNK 151912Z 04008KT 2SM -SN FEW015 BKN028 OVC034 M11/M14 A3013 RMK AO2 P0000 T11061144
Observed Flight Rules
Feb-15 @ 19:12 UTC
(16 minutes ago)
IFR
Wind Visibility
40° at 8 knots 2 miles
Clouds
  • Few at 1,500' AGL
  • Broken at 2,800' AGL
  • Overcast at 3,400' AGL
Conditions
  • Light Snow
Temperature Dewpoint
-11°C / 12°F -14°C / 7°F
Humidity Altimeter Pressure
79% 30.13" Hg 1020.32 hPa
Current Rain
0.01